createdAt,value
2024-04-05T00:02:14.125Z,3.60
2024-04-05T00:07:12.133Z,4.40
2024-04-05T00:09:45.410Z,4.50
2024-04-05T00:12:14.611Z,4.60
2024-04-05T00:17:12.118Z,4.30
2024-04-05T00:19:43.309Z,4.50
2024-04-05T00:22:11.797Z,4.50
2024-04-05T00:24:40.364Z,4.30
2024-04-05T00:27:09.279Z,4.60
2024-04-05T00:29:37.809Z,4.10
2024-04-05T00:32:07.024Z,4.50
2024-04-05T00:34:36.154Z,5.50
2024-04-05T00:37:04.827Z,4.70
2024-04-05T00:39:33.327Z,4.50
2024-04-05T00:42:02.478Z,4.80
2024-04-05T00:44:31.531Z,5.00
2024-04-05T00:46:59.850Z,5.10
2024-04-05T00:49:28.804Z,5.10
2024-04-05T00:54:26.498Z,6.40
2024-04-05T00:56:55.537Z,5.70
2024-04-05T00:59:25.522Z,5.90
2024-04-05T01:01:54.107Z,5.10
2024-04-05T01:06:52.276Z,6.10
2024-04-05T01:09:22.079Z,5.50
2024-04-05T01:11:57.603Z,5.60
2024-04-05T01:14:27.028Z,5.20
2024-04-05T01:16:56.209Z,5.80
2024-04-05T01:19:24.958Z,5.10
2024-04-05T01:24:22.054Z,6.00
2024-04-05T01:26:51.009Z,5.60
2024-04-05T01:29:19.552Z,5.90
2024-04-05T01:34:17.612Z,5.90
2024-04-05T01:36:46.712Z,4.70
2024-04-05T01:39:15.422Z,5.40
2024-04-05T01:41:43.778Z,4.90
2024-04-05T01:44:13.177Z,6.90
2024-04-05T01:46:42.861Z,4.80
2024-04-05T01:49:12.048Z,5.60
2024-04-05T01:51:41.098Z,5.10
2024-04-05T01:54:09.640Z,5.40
2024-04-05T01:56:38.376Z,5.70
2024-04-05T01:59:06.886Z,5.10
2024-04-05T02:04:04.941Z,6.50
2024-04-05T02:06:33.554Z,6.60
2024-04-05T02:09:02.795Z,6.20
2024-04-05T02:11:31.452Z,6.30
2024-04-05T02:14:00.442Z,5.60
2024-04-05T02:16:29.410Z,6.30
2024-04-05T02:18:57.772Z,7.10
2024-04-05T02:23:54.532Z,5.50
2024-04-05T02:26:23.746Z,6.20
2024-04-05T02:28:52.205Z,5.90
2024-04-05T02:33:49.054Z,6.20
2024-04-05T02:36:18.272Z,5.90
2024-04-05T02:38:47.540Z,6.60
2024-04-05T02:41:17.065Z,5.20
2024-04-05T02:43:46.294Z,6.30
2024-04-05T02:46:14.739Z,7.10
2024-04-05T02:51:11.906Z,7.40
2024-04-05T02:53:41.119Z,6.20
2024-04-05T02:56:12.283Z,6.90
2024-04-05T02:58:40.948Z,7.20
2024-04-05T03:01:09.734Z,6.20
2024-04-05T03:03:38.118Z,6.40
2024-04-05T03:06:06.457Z,5.90
2024-04-05T03:11:04.152Z,6.10
2024-04-05T03:13:33.181Z,7.00
2024-04-05T03:16:02.629Z,5.70
2024-04-05T03:18:33.063Z,7.10
2024-04-05T03:21:01.542Z,7.20
2024-04-05T03:25:59.306Z,6.60
2024-04-05T03:28:28.291Z,6.00
2024-04-05T03:30:57.516Z,6.50
2024-04-05T03:33:26.608Z,6.70
2024-04-05T03:38:24.460Z,7.50
2024-04-05T03:40:53.623Z,8.30
2024-04-05T03:43:22.864Z,8.70
2024-04-05T03:45:51.276Z,7.70
2024-04-05T03:50:48.721Z,7.60
2024-04-05T03:53:17.279Z,10.90
2024-04-05T03:58:14.970Z,7.20
2024-04-05T04:00:50.572Z,6.50
2024-04-05T04:03:19.817Z,7.70
2024-04-05T04:05:48.964Z,8.60
2024-04-05T04:08:17.656Z,7.20
2024-04-05T04:10:46.244Z,7.90
2024-04-05T04:13:15.702Z,8.90
2024-04-05T04:15:45.033Z,14.10
2024-04-05T04:18:13.841Z,19.70
2024-04-05T04:20:42.976Z,11.30
2024-04-05T04:25:41.255Z,9.50
2024-04-05T04:28:11.391Z,8.20
2024-04-05T04:30:40.490Z,9.50
2024-04-05T04:33:12.089Z,8.50
2024-04-05T04:35:44.574Z,8.40
2024-04-05T04:38:13.180Z,8.70
2024-04-05T04:40:42.978Z,8.20
2024-04-05T04:43:11.452Z,10.90
2024-04-05T04:45:39.790Z,9.20
2024-04-05T04:48:08.603Z,10.30
2024-04-05T04:50:37.337Z,9.10
2024-04-05T04:53:05.947Z,15.00
2024-04-05T04:55:36.751Z,11.00
2024-04-05T04:58:06.607Z,12.00
2024-04-05T05:00:35.456Z,14.40
2024-04-05T05:03:03.866Z,14.00
2024-04-05T05:05:32.619Z,17.00
2024-04-05T05:10:30.147Z,13.60
2024-04-05T05:13:00.333Z,21.00
2024-04-05T05:15:28.490Z,16.10
2024-04-05T05:17:56.730Z,13.70
2024-04-05T05:22:57.341Z,11.00
2024-04-05T05:25:25.683Z,12.40
2024-04-05T05:27:54.200Z,9.10
2024-04-05T05:30:23.547Z,7.50
2024-04-05T05:32:54.709Z,9.70
2024-04-05T05:35:23.914Z,8.70
2024-04-05T05:37:51.969Z,9.80
2024-04-05T05:40:19.921Z,9.00
2024-04-05T05:42:48.987Z,9.20
2024-04-05T05:45:17.382Z,7.30
2024-04-05T05:50:15.174Z,8.10
2024-04-05T05:52:43.756Z,9.80
2024-04-05T05:55:12.070Z,9.50
2024-04-05T06:00:11.560Z,11.60
2024-04-05T06:02:40.764Z,8.70
2024-04-05T06:05:16.031Z,10.60
2024-04-05T06:07:45.127Z,10.90
2024-04-05T06:10:20.944Z,10.90
2024-04-05T06:12:53.202Z,24.80
2024-04-05T06:15:25.838Z,11.10
2024-04-05T06:17:56.290Z,8.00
2024-04-05T06:20:27.089Z,8.00
2024-04-05T06:22:57.690Z,8.60
2024-04-05T06:25:25.962Z,7.70
2024-04-05T06:27:56.497Z,8.20
2024-04-05T06:30:24.765Z,10.50
2024-04-05T06:32:53.716Z,11.00
2024-04-05T06:35:21.960Z,8.00
2024-04-05T06:37:50.786Z,10.60
2024-04-05T06:40:18.963Z,8.60
2024-04-05T06:42:47.448Z,9.30
2024-04-05T06:45:15.830Z,7.30
2024-04-05T06:47:44.152Z,9.70
2024-04-05T06:50:12.439Z,9.60
2024-04-05T06:52:40.455Z,9.80
2024-04-05T06:57:38.732Z,10.60
2024-04-05T07:00:07.940Z,11.40
2024-04-05T07:02:36.120Z,9.00
2024-04-05T07:05:04.594Z,7.80
2024-04-05T07:07:32.775Z,8.00
2024-04-05T07:10:00.913Z,6.80
2024-04-05T07:12:29.433Z,8.50
2024-04-05T07:14:58.691Z,9.50
2024-04-05T07:17:27.456Z,7.60
2024-04-05T07:19:56.309Z,8.90
2024-04-05T07:22:26.208Z,8.10
2024-04-05T07:24:55.751Z,8.90
2024-04-05T07:27:25.628Z,9.40
2024-04-05T07:29:55.344Z,9.60
2024-04-05T07:32:26.235Z,8.30
2024-04-05T07:34:55.465Z,7.30
2024-04-05T07:37:23.772Z,7.10
2024-04-05T07:39:52.187Z,6.10
2024-04-05T07:42:20.812Z,5.70
2024-04-05T07:44:48.901Z,6.70
2024-04-05T07:47:17.316Z,19.30
2024-04-05T07:49:45.587Z,8.10
2024-04-05T07:52:14.659Z,4.00
2024-04-05T07:54:46.580Z,4.70
2024-04-05T07:57:15.093Z,4.40
2024-04-05T07:59:48.472Z,4.80
2024-04-05T08:02:17.831Z,3.90
2024-04-05T08:04:46.282Z,3.40
2024-04-05T08:07:14.625Z,4.00
2024-04-05T08:09:44.839Z,4.00
2024-04-05T08:12:13.679Z,3.60
2024-04-05T08:14:43.653Z,3.90
2024-04-05T08:17:13.915Z,3.40
2024-04-05T08:19:42.841Z,6.80
2024-04-05T08:22:13.972Z,3.10
2024-04-05T08:25:08.721Z,3.30
2024-04-05T08:27:38.045Z,4.00
2024-04-05T08:30:07.674Z,3.00
2024-04-05T08:32:44.619Z,3.40
2024-04-05T08:35:14.858Z,3.30
2024-04-05T08:37:44.818Z,3.60
2024-04-05T08:43:18.195Z,3.10
2024-04-05T08:45:56.918Z,3.50
2024-04-05T08:48:26.723Z,3.00
2024-04-05T08:50:55.608Z,3.80
2024-04-05T08:53:23.697Z,2.90
2024-04-05T08:58:19.684Z,51.90
2024-04-05T09:00:48.567Z,4.50
2024-04-05T09:03:16.473Z,4.50
2024-04-05T09:05:46.202Z,3.20
2024-04-05T09:08:14.961Z,4.30
2024-04-05T09:10:50.349Z,9.20
2024-04-05T09:13:18.864Z,4.40
2024-04-05T09:15:53.406Z,2.70
2024-04-05T09:20:53.377Z,2.70
2024-04-05T09:23:23.471Z,4.10
2024-04-05T09:26:02.618Z,3.20
2024-04-05T09:28:30.991Z,3.40
2024-04-05T09:31:01.112Z,3.50
2024-04-05T09:33:30.393Z,3.70
2024-04-05T09:35:59.390Z,3.30
2024-04-05T09:38:27.368Z,4.40
2024-04-05T09:40:55.372Z,3.50
2024-04-05T09:45:52.851Z,2.90
2024-04-05T09:48:23.079Z,3.50
2024-04-05T09:50:52.891Z,2.90
2024-04-05T09:53:20.890Z,2.90
2024-04-05T09:55:50.572Z,2.90
2024-04-05T09:58:19.036Z,2.70
2024-04-05T10:00:49.426Z,3.00
2024-04-05T10:03:19.123Z,3.50
2024-04-05T10:05:50.725Z,3.20
2024-04-05T10:08:20.215Z,2.60
2024-04-05T10:10:50.795Z,3.30
2024-04-05T10:13:25.667Z,3.40
2024-04-05T10:15:54.492Z,3.20
2024-04-05T10:18:31.521Z,3.10
2024-04-05T10:21:04.664Z,3.80
2024-04-05T10:23:34.397Z,5.60
2024-04-05T10:26:12.431Z,4.90
2024-04-05T10:28:41.588Z,9.00
2024-04-05T10:31:12.652Z,11.90
2024-04-05T10:33:47.792Z,2.60
2024-04-05T10:36:16.119Z,4.30
2024-04-05T10:41:19.872Z,3.00
2024-04-05T10:43:48.563Z,2.10
2024-04-05T10:46:19.112Z,2.40
2024-04-05T10:48:57.335Z,6.60
2024-04-05T10:51:26.322Z,2.50
2024-04-05T10:53:56.745Z,3.50
2024-04-05T10:56:25.579Z,3.60
2024-04-05T10:58:55.082Z,3.30
2024-04-05T11:01:27.342Z,4.60
2024-04-05T11:03:57.280Z,2.90
2024-04-05T11:06:26.939Z,3.10
2024-04-05T11:11:30.094Z,7.10
2024-04-05T11:14:07.403Z,4.00
2024-04-05T11:16:41.024Z,4.20
2024-04-05T11:19:09.869Z,2.90
2024-04-05T11:21:38.110Z,3.50
2024-04-05T11:26:50.313Z,5.10
2024-04-05T11:29:20.539Z,3.20
2024-04-05T11:31:49.216Z,3.00
2024-04-05T11:34:18.560Z,2.30
2024-04-05T11:36:54.545Z,2.50
2024-04-05T11:39:26.204Z,4.10
2024-04-05T11:41:56.073Z,3.60
2024-04-05T11:44:29.043Z,3.40
2024-04-05T11:46:57.329Z,2.60
2024-04-05T11:49:26.709Z,3.20
2024-04-05T11:51:55.433Z,3.10
2024-04-05T11:56:52.639Z,2.10
2024-04-05T11:59:21.657Z,3.10
2024-04-05T12:01:50.423Z,11.50
2024-04-05T12:04:22.195Z,2.10
2024-04-05T12:06:52.513Z,2.30
2024-04-05T12:09:21.356Z,3.20
2024-04-05T12:11:50.158Z,2.30
2024-04-05T12:14:19.930Z,2.30
2024-04-05T12:19:20.985Z,2.20
2024-04-05T12:21:49.686Z,3.10
2024-04-05T12:24:18.490Z,2.50
2024-04-05T12:26:47.723Z,1.80
2024-04-05T12:29:16.345Z,4.80
2024-04-05T12:31:44.271Z,1.90
2024-04-05T12:34:12.183Z,2.60
2024-04-05T12:36:40.755Z,8.80
2024-04-05T12:39:17.773Z,3.20
2024-04-05T12:41:45.687Z,3.10
2024-04-05T12:44:13.819Z,4.90
2024-04-05T12:46:43.289Z,4.20
2024-04-05T12:49:18.017Z,5.90
2024-04-05T12:52:15.086Z,5.50
2024-04-05T12:57:16.687Z,5.10
2024-04-05T12:59:44.633Z,5.00
2024-04-05T13:02:12.683Z,7.20
2024-04-05T13:04:40.594Z,5.00
2024-04-05T13:07:08.769Z,5.30
2024-04-05T13:09:36.741Z,2.90
2024-04-05T13:12:04.799Z,5.30
2024-04-05T13:17:00.928Z,2.80
2024-04-05T13:19:28.959Z,4.90
2024-04-05T13:21:56.820Z,3.10
2024-04-05T13:24:24.772Z,5.30
2024-04-05T13:26:53.057Z,3.80
2024-04-05T13:29:21.711Z,3.10
2024-04-05T13:31:49.690Z,4.40
2024-04-05T13:34:17.720Z,3.30
2024-04-05T13:39:16.156Z,3.70
2024-04-05T13:41:44.780Z,3.60
2024-04-05T13:44:12.681Z,6.60
2024-04-05T13:46:40.527Z,4.20
2024-04-05T13:49:10.407Z,5.30
2024-04-05T13:51:40.038Z,2.20
2024-04-05T13:54:10.881Z,2.40
2024-04-05T13:56:40.714Z,2.70
2024-04-05T13:59:17.875Z,5.90
2024-04-05T14:01:48.463Z,3.40
2024-04-05T14:04:18.104Z,2.80
2024-04-05T14:09:19.544Z,6.80
2024-04-05T14:11:52.703Z,5.00
2024-04-05T14:14:21.963Z,13.40
2024-04-05T14:16:50.953Z,4.40
2024-04-05T14:19:18.992Z,4.30
2024-04-05T14:21:48.763Z,4.00
2024-04-05T14:24:21.676Z,5.70
2024-04-05T14:26:50.614Z,3.00
2024-04-05T14:29:18.862Z,5.60
2024-04-05T14:34:14.992Z,2.50
2024-04-05T14:36:43.803Z,2.30
2024-04-05T14:39:11.916Z,3.50
2024-04-05T14:41:39.954Z,5.20
2024-04-05T14:44:08.776Z,2.90
2024-04-05T14:46:36.852Z,2.20
2024-04-05T14:51:33.972Z,2.20
2024-04-05T14:54:03.244Z,2.40
2024-04-05T14:56:31.303Z,1.90
2024-04-05T15:01:27.906Z,3.00
2024-04-05T15:03:55.914Z,2.70
2024-04-05T15:06:23.996Z,3.00
2024-04-05T15:08:51.929Z,2.80
2024-04-05T15:11:20.120Z,2.70
2024-04-05T15:13:48.164Z,3.10
2024-04-05T15:16:17.198Z,3.30
2024-04-05T15:18:45.336Z,5.00
2024-04-05T15:23:41.804Z,2.70
2024-04-05T15:26:09.895Z,2.50
2024-04-05T15:28:39.240Z,2.90
2024-04-05T15:31:07.226Z,3.50
2024-04-05T15:33:38.222Z,3.00
2024-04-05T15:36:06.566Z,3.10
2024-04-05T15:38:35.909Z,3.50
2024-04-05T15:41:08.293Z,2.30
2024-04-05T15:43:37.379Z,2.70
2024-04-05T15:46:06.067Z,1.80
2024-04-05T15:48:33.946Z,1.90
2024-04-05T15:51:06.069Z,2.00
2024-04-05T15:53:34.542Z,1.50
2024-04-05T15:56:04.080Z,1.90
2024-04-05T15:58:32.113Z,1.30
2024-04-05T16:01:04.325Z,2.20
2024-04-05T16:03:33.270Z,2.30
2024-04-05T16:06:01.287Z,1.40
2024-04-05T16:08:29.325Z,1.60
2024-04-05T16:11:01.358Z,2.30
2024-04-05T16:13:29.308Z,3.30
2024-04-05T16:16:00.519Z,2.90
2024-04-05T16:18:29.106Z,2.40
2024-04-05T16:21:13.567Z,2.80
2024-04-05T16:23:43.102Z,3.80
2024-04-05T16:26:11.851Z,3.60
2024-04-05T16:28:44.530Z,3.10
2024-04-05T16:31:15.661Z,3.00
2024-04-05T16:33:44.492Z,2.70
2024-04-05T16:36:12.723Z,2.40
2024-04-05T16:38:41.025Z,2.70
2024-04-05T16:43:39.012Z,4.00
2024-04-05T16:46:11.230Z,7.70
2024-04-05T16:48:39.860Z,2.50
2024-04-05T16:51:08.454Z,3.10
2024-04-05T16:53:39.603Z,3.10
2024-04-05T16:56:08.335Z,3.30
2024-04-05T16:58:36.434Z,3.10
2024-04-05T17:01:06.096Z,3.30
2024-04-05T17:03:34.717Z,2.40
2024-04-05T17:06:23.253Z,2.70
2024-04-05T17:08:51.796Z,2.70
2024-04-05T17:11:19.807Z,4.50
2024-04-05T17:13:56.853Z,4.00
2024-04-05T17:16:24.763Z,4.80
2024-04-05T17:18:52.864Z,3.90
2024-04-05T17:23:50.342Z,2.40
2024-04-05T17:26:20.068Z,2.60
2024-04-05T17:28:49.757Z,3.50
2024-04-05T17:31:19.901Z,3.00
2024-04-05T17:33:48.138Z,3.10
2024-04-05T17:36:16.310Z,3.00
2024-04-05T17:38:50.586Z,6.10
2024-04-05T17:41:18.610Z,6.60
2024-04-05T17:43:47.328Z,6.90
2024-04-05T17:46:16.470Z,3.60
2024-04-05T17:48:44.622Z,3.00
2024-04-05T17:51:12.600Z,3.70
2024-04-05T17:53:40.941Z,4.20
2024-04-05T17:58:38.718Z,5.40
2024-04-05T18:01:06.715Z,4.80
2024-04-05T18:06:03.020Z,3.80
2024-04-05T18:08:31.039Z,3.90
2024-04-05T18:10:59.153Z,4.60
2024-04-05T18:13:27.126Z,4.20
2024-04-05T18:15:56.120Z,4.30
2024-04-05T18:18:24.077Z,3.90
2024-04-05T18:20:52.052Z,4.00
2024-04-05T18:23:20.063Z,4.10
2024-04-05T18:25:48.132Z,3.70
2024-04-05T18:28:16.823Z,3.80
2024-04-05T18:30:44.861Z,4.00
2024-04-05T18:33:12.888Z,3.80
2024-04-05T18:35:40.855Z,3.80
2024-04-05T18:38:09.036Z,4.30
2024-04-05T18:40:37.480Z,16.80
2024-04-05T18:43:05.652Z,6.10
2024-04-05T18:45:33.662Z,4.60
2024-04-05T18:48:10.602Z,4.70
2024-04-05T18:50:38.607Z,4.90
2024-04-05T18:53:06.669Z,5.00
2024-04-05T18:55:37.640Z,4.40
2024-04-05T18:58:06.042Z,3.80
2024-04-05T19:03:05.203Z,4.70
2024-04-05T19:05:33.396Z,5.30
2024-04-05T19:08:01.454Z,4.70
2024-04-05T19:10:29.566Z,4.40
2024-04-05T19:12:57.610Z,5.20
2024-04-05T19:15:26.176Z,4.80
2024-04-05T19:17:54.154Z,4.60
2024-04-05T19:20:22.806Z,4.70
2024-04-05T19:22:50.768Z,4.80
2024-04-05T19:25:18.773Z,6.60
2024-04-05T19:27:46.805Z,5.10
2024-04-05T19:30:14.938Z,5.30
2024-04-05T19:32:43.335Z,4.50
2024-04-05T19:37:44.954Z,4.60
2024-04-05T19:40:14.791Z,5.00
2024-04-05T19:42:42.999Z,5.30
2024-04-05T19:45:15.913Z,7.20
2024-04-05T19:47:44.060Z,7.60
2024-04-05T19:50:12.123Z,10.10
2024-04-05T19:52:40.174Z,8.80
2024-04-05T19:55:09.510Z,7.70
2024-04-05T19:57:37.561Z,6.70
2024-04-05T20:00:06.170Z,6.50
2024-04-05T20:02:40.680Z,9.40
2024-04-05T20:05:09.229Z,7.20
2024-04-05T20:07:38.003Z,6.10
2024-04-05T20:12:36.872Z,9.10
2024-04-05T20:15:05.296Z,8.70
2024-04-05T20:20:04.412Z,10.90
2024-04-05T20:22:32.614Z,8.10
2024-04-05T20:25:00.608Z,7.80
2024-04-05T20:27:28.761Z,12.70
2024-04-05T20:30:15.483Z,5.60
2024-04-05T20:32:43.986Z,6.40
2024-04-05T20:35:11.981Z,6.10
2024-04-05T20:37:40.209Z,7.30
2024-04-05T20:40:08.908Z,8.00
2024-04-05T20:42:36.832Z,8.60
2024-04-05T20:45:05.180Z,7.60
2024-04-05T20:47:33.909Z,7.20
2024-04-05T20:50:02.037Z,5.70
2024-04-05T20:52:30.527Z,6.90
2024-04-05T20:54:58.535Z,5.70
2024-04-05T20:57:26.652Z,6.90
2024-04-05T20:59:54.684Z,8.00
2024-04-05T21:02:22.721Z,8.80
2024-04-05T21:04:50.713Z,8.40
2024-04-05T21:07:18.694Z,9.20
2024-04-05T21:09:46.782Z,8.50
2024-04-05T21:12:15.281Z,11.20
2024-04-05T21:17:11.319Z,9.40
2024-04-05T21:19:47.603Z,8.90
2024-04-05T21:22:15.974Z,8.70
2024-04-05T21:24:45.028Z,9.50
2024-04-05T21:27:13.069Z,8.30
2024-04-05T21:29:41.182Z,9.30
2024-04-05T21:32:12.932Z,10.30
2024-04-05T21:34:40.936Z,10.00
2024-04-05T21:37:08.903Z,8.90
2024-04-05T21:39:37.032Z,11.60
2024-04-05T21:42:05.552Z,10.90
2024-04-05T21:44:33.510Z,11.20
2024-04-05T21:47:01.518Z,11.70
2024-04-05T21:52:00.464Z,10.80
2024-04-05T21:54:28.425Z,9.20
2024-04-05T21:56:56.744Z,8.80
2024-04-05T21:59:25.407Z,9.90
2024-04-05T22:01:53.977Z,9.90
2024-04-05T22:04:22.010Z,9.70
2024-04-05T22:06:49.954Z,10.30
2024-04-05T22:09:18.338Z,11.00
2024-04-05T22:11:46.523Z,10.70
2024-04-05T22:14:20.508Z,10.50
2024-04-05T22:16:52.383Z,9.90
2024-04-05T22:21:48.356Z,9.50
2024-04-05T22:24:16.318Z,10.30
2024-04-05T22:26:44.523Z,11.10
2024-04-05T22:29:12.459Z,10.30
2024-04-05T22:31:40.772Z,10.40
2024-04-05T22:34:08.878Z,11.10
2024-04-05T22:36:36.865Z,12.90
2024-04-05T22:39:08.932Z,12.40
2024-04-05T22:41:38.576Z,12.30
2024-04-05T22:44:06.545Z,10.50
2024-04-05T22:46:34.515Z,12.90
2024-04-05T22:49:02.581Z,12.10
2024-04-05T22:51:30.736Z,13.40
2024-04-05T22:53:58.709Z,14.20
2024-04-05T22:56:26.764Z,12.70
2024-04-05T22:58:54.765Z,12.70
2024-04-05T23:01:22.803Z,13.40
2024-04-05T23:03:50.774Z,15.10
2024-04-05T23:06:23.800Z,13.30
2024-04-05T23:08:51.969Z,13.70
2024-04-05T23:11:20.021Z,13.10
2024-04-05T23:13:48.214Z,15.30
2024-04-05T23:16:17.185Z,15.50
2024-04-05T23:18:45.201Z,12.60
2024-04-05T23:21:13.211Z,13.20
2024-04-05T23:23:41.233Z,11.20
2024-04-05T23:26:09.526Z,13.80
2024-04-05T23:28:38.089Z,13.30
2024-04-05T23:31:06.556Z,12.70
2024-04-05T23:33:34.696Z,13.30
2024-04-05T23:36:03.060Z,14.40
2024-04-05T23:38:31.118Z,14.80
2024-04-05T23:40:59.083Z,14.90
2024-04-05T23:43:27.123Z,16.60
2024-04-05T23:45:55.095Z,16.30
2024-04-05T23:48:23.426Z,14.80
2024-04-05T23:50:51.497Z,15.50
2024-04-05T23:53:19.744Z,14.70
2024-04-05T23:55:47.856Z,14.80
2024-04-05T23:58:15.848Z,13.60
